createdAt,value
2016-05-30T00:00:04.278Z,0
2016-05-30T00:01:04.328Z,0
2016-05-30T00:02:04.346Z,0
2016-05-30T00:03:04.364Z,0
2016-05-30T00:04:04.399Z,0
2016-05-30T00:05:04.417Z,0
2016-05-30T00:06:04.435Z,0
2016-05-30T00:07:04.907Z,0
2016-05-30T00:08:04.487Z,0
2016-05-30T00:09:04.365Z,0
2016-05-30T00:10:04.540Z,0
2016-05-30T00:11:04.574Z,0
2016-05-30T00:12:04.592Z,0
2016-05-30T00:13:04.470Z,0
2016-05-30T00:14:04.660Z,0
2016-05-30T00:15:04.678Z,0
2016-05-30T00:16:04.696Z,0
2016-05-30T00:17:04.715Z,0
2016-05-30T00:18:04.748Z,0
2016-05-30T00:19:04.626Z,0
2016-05-30T00:20:04.801Z,0
2016-05-30T00:21:04.834Z,0
2016-05-30T00:22:04.884Z,0
2016-05-30T00:23:04.872Z,0
2016-05-30T00:24:04.889Z,0
2016-05-30T00:25:04.923Z,0
2016-05-30T00:26:04.957Z,0
2016-05-30T00:27:04.960Z,0
2016-05-30T00:28:04.854Z,0
2016-05-30T00:29:04.872Z,0
2016-05-30T00:30:05.047Z,0
2016-05-30T00:31:04.924Z,0
2016-05-30T00:32:05.114Z,0
2016-05-30T00:33:04.976Z,0
2016-05-30T00:34:05.010Z,0
2016-05-30T00:35:05.232Z,0
2016-05-30T00:36:05.203Z,0
2016-05-30T00:37:05.831Z,0
2016-05-30T00:38:05.255Z,0
2016-05-30T00:39:05.273Z,0
2016-05-30T00:40:05.308Z,0
2016-05-30T00:41:05.327Z,0
2016-05-30T00:42:05.376Z,0
2016-05-30T00:43:05.222Z,0
2016-05-30T00:44:05.412Z,0
2016-05-30T00:45:05.274Z,0
2016-05-30T00:46:05.309Z,0
2016-05-30T00:47:05.343Z,0
2016-05-30T00:48:05.501Z,0
2016-05-30T00:49:05.535Z,0
2016-05-30T00:50:05.398Z,0
2016-05-30T00:51:05.587Z,0
2016-05-30T00:52:05.871Z,0
2016-05-30T00:53:05.639Z,0
2016-05-30T00:54:05.673Z,0
2016-05-30T00:55:05.536Z,0
2016-05-30T00:56:05.726Z,0
2016-05-30T00:57:05.744Z,0
2016-05-30T00:58:05.762Z,0
2016-05-30T00:59:05.781Z,0
2016-05-30T01:00:05.502Z,0
2016-05-30T01:01:05.677Z,0
2016-05-30T01:02:05.866Z,0
2016-05-30T01:03:05.900Z,0
2016-05-30T01:04:05.903Z,0
2016-05-30T01:05:05.938Z,0
2016-05-30T01:06:05.830Z,0
2016-05-30T01:07:06.005Z,0
2016-05-30T01:08:06.008Z,0
2016-05-30T01:09:06.041Z,0
2016-05-30T01:10:06.060Z,0
2016-05-30T01:11:06.093Z,0
2016-05-30T01:12:05.971Z,0
2016-05-30T01:13:06.146Z,0
2016-05-30T01:14:06.040Z,0
2016-05-30T01:15:06.198Z,0
2016-05-30T01:16:06.218Z,0
2016-05-30T01:17:06.095Z,0
2016-05-30T01:18:06.270Z,0
2016-05-30T01:19:06.303Z,0
2016-05-30T01:20:06.165Z,0
2016-05-30T01:21:06.340Z,0
2016-05-30T01:22:06.093Z,0
2016-05-30T01:23:06.408Z,0
2016-05-30T01:24:06.426Z,0
2016-05-30T01:25:06.507Z,0
2016-05-30T01:26:06.323Z,0
2016-05-30T01:27:06.497Z,0
2016-05-30T01:28:06.531Z,0
2016-05-30T01:29:06.549Z,0
2016-05-30T01:30:06.598Z,0
2016-05-30T01:31:06.601Z,0
2016-05-30T01:32:06.478Z,0
2016-05-30T01:33:06.653Z,0
2016-05-30T01:34:06.515Z,0
2016-05-30T01:35:07.612Z,0
2016-05-30T01:36:06.568Z,0
2016-05-30T01:37:06.774Z,0
2016-05-30T01:38:06.619Z,0
2016-05-30T01:39:06.794Z,0
2016-05-30T01:40:06.829Z,0
2016-05-30T01:41:06.847Z,0
2016-05-30T01:42:06.880Z,0
2016-05-30T01:43:06.915Z,0
2016-05-30T01:44:06.777Z,0
2016-05-30T01:45:06.951Z,0
2016-05-30T01:46:06.829Z,0
2016-05-30T01:47:07.003Z,0
2016-05-30T01:48:07.021Z,0
2016-05-30T01:49:07.056Z,0
2016-05-30T01:50:07.074Z,0
2016-05-30T01:51:07.123Z,0
2016-05-30T01:52:07.954Z,0
2016-05-30T01:53:06.848Z,0
2016-05-30T01:54:07.178Z,0
2016-05-30T01:55:07.197Z,0
2016-05-30T01:56:07.074Z,0
2016-05-30T01:57:07.092Z,0
2016-05-30T01:58:07.127Z,0
2016-05-30T01:59:07.317Z,0
2016-05-30T02:00:07.178Z,0
2016-05-30T02:01:07.198Z,0
2016-05-30T02:02:07.388Z,0
2016-05-30T02:03:07.405Z,0
2016-05-30T02:04:07.283Z,0
2016-05-30T02:05:07.474Z,0
2016-05-30T02:06:07.336Z,0
2016-05-30T02:07:08.167Z,0
2016-05-30T02:08:07.545Z,0
2016-05-30T02:09:07.562Z,0
2016-05-30T02:10:07.597Z,0
2016-05-30T02:11:07.615Z,0
2016-05-30T02:12:07.680Z,0
2016-05-30T02:13:07.668Z,0
2016-05-30T02:14:07.685Z,0
2016-05-30T02:15:07.719Z,0
2016-05-30T02:16:07.754Z,0
2016-05-30T02:17:07.772Z,0
2016-05-30T02:18:07.634Z,0
2016-05-30T02:19:07.824Z,0
2016-05-30T02:20:07.687Z,0
2016-05-30T02:21:07.860Z,0
2016-05-30T02:22:07.754Z,0
2016-05-30T02:23:07.912Z,0
2016-05-30T02:24:07.947Z,0
2016-05-30T02:25:07.965Z,0
2016-05-30T02:26:07.999Z,0
2016-05-30T02:27:08.017Z,0
2016-05-30T02:28:08.036Z,0
2016-05-30T02:29:08.070Z,0
2016-05-30T02:30:07.931Z,0
2016-05-30T02:31:07.966Z,0
2016-05-30T02:32:08.139Z,0
2016-05-30T02:33:08.003Z,0
2016-05-30T02:34:08.192Z,0
2016-05-30T02:35:08.273Z,0
2016-05-30T02:36:08.260Z,0
2016-05-30T02:37:09.450Z,0
2016-05-30T02:38:08.125Z,0
2016-05-30T02:39:08.015Z,0
2016-05-30T02:40:08.389Z,0
2016-05-30T02:41:08.434Z,0
2016-05-30T02:42:08.495Z,0
2016-05-30T02:43:08.540Z,0
2016-05-30T02:44:08.577Z,0
2016-05-30T02:45:08.621Z,0
2016-05-30T02:46:08.649Z,0
2016-05-30T02:47:08.692Z,0
2016-05-30T02:48:08.735Z,0
2016-05-30T02:49:08.761Z,0
2016-05-30T02:50:08.782Z,0
2016-05-30T02:51:08.820Z,0
2016-05-30T02:52:08.701Z,0
2016-05-30T02:53:08.879Z,0
2016-05-30T02:54:08.899Z,0
2016-05-30T02:55:08.763Z,0
2016-05-30T02:56:08.954Z,0
2016-05-30T02:57:08.974Z,0
2016-05-30T02:58:09.009Z,0
2016-05-30T02:59:09.028Z,0
2016-05-30T03:00:09.063Z,0
2016-05-30T03:01:09.114Z,0
2016-05-30T03:02:09.116Z,0
2016-05-30T03:03:09.136Z,0
2016-05-30T03:04:09.154Z,0
2016-05-30T03:05:09.188Z,0
2016-05-30T03:06:09.207Z,0
2016-05-30T03:07:09.975Z,0
2016-05-30T03:08:09.117Z,0
2016-05-30T03:09:09.309Z,0
2016-05-30T03:10:09.312Z,0
2016-05-30T03:11:09.345Z,0
2016-05-30T03:12:09.364Z,0
2016-05-30T03:13:09.241Z,0
2016-05-30T03:14:09.416Z,0
2016-05-30T03:15:09.294Z,0
2016-05-30T03:16:09.312Z,0
2016-05-30T03:17:09.502Z,0
2016-05-30T03:18:09.208Z,0
2016-05-30T03:19:09.225Z,0
2016-05-30T03:20:09.416Z,0
2016-05-30T03:21:09.575Z,0
2016-05-30T03:22:09.468Z,4
2016-05-30T03:23:09.643Z,4
2016-05-30T03:24:09.521Z,4
2016-05-30T03:25:09.711Z,4
2016-05-30T03:26:09.713Z,4
2016-05-30T03:27:09.746Z,4
2016-05-30T03:28:09.766Z,4
2016-05-30T03:29:09.627Z,4
2016-05-30T03:30:09.818Z,4
2016-05-30T03:31:09.836Z,4
2016-05-30T03:32:09.870Z,4
2016-05-30T03:33:09.904Z,4
2016-05-30T03:34:09.765Z,4
2016-05-30T03:35:09.940Z,4
2016-05-30T03:36:09.818Z,4
2016-05-30T03:37:09.696Z,4
2016-05-30T03:38:10.027Z,4
2016-05-30T03:39:10.046Z,4
2016-05-30T03:40:10.078Z,4
2016-05-30T03:41:10.098Z,4
2016-05-30T03:42:10.117Z,4
2016-05-30T03:43:10.150Z,4
2016-05-30T03:44:10.012Z,8
2016-05-30T03:45:10.062Z,8
2016-05-30T03:46:10.220Z,8
2016-05-30T03:47:10.239Z,8
2016-05-30T03:48:10.116Z,8
2016-05-30T03:49:10.306Z,4
2016-05-30T03:50:10.169Z,8
2016-05-30T03:51:10.344Z,8
2016-05-30T03:52:10.549Z,8
2016-05-30T03:53:10.396Z,8
2016-05-30T03:54:10.273Z,12
2016-05-30T03:55:10.463Z,12
2016-05-30T03:56:10.482Z,16
2016-05-30T03:57:10.500Z,20
2016-05-30T03:58:10.518Z,24
2016-05-30T03:59:10.552Z,20
2016-05-30T04:00:10.415Z,20
2016-05-30T04:01:10.588Z,24
2016-05-30T04:02:10.623Z,20
2016-05-30T04:03:10.656Z,20
2016-05-30T04:04:10.676Z,20
2016-05-30T04:05:10.709Z,20
2016-05-30T04:06:10.727Z,20
2016-05-30T04:07:12.229Z,28
2016-05-30T04:08:10.779Z,24
2016-05-30T04:09:10.642Z,24
2016-05-30T04:10:10.676Z,28
2016-05-30T04:11:10.851Z,24
2016-05-30T04:12:10.884Z,28
2016-05-30T04:13:10.902Z,28
2016-05-30T04:14:10.937Z,32
2016-05-30T04:15:10.798Z,32
2016-05-30T04:16:10.973Z,32
2016-05-30T04:17:11.007Z,44
2016-05-30T04:18:11.025Z,44
2016-05-30T04:19:11.059Z,48
2016-05-30T04:20:11.078Z,48
2016-05-30T04:21:11.096Z,56
2016-05-30T04:22:11.755Z,52
2016-05-30T04:23:10.992Z,48
2016-05-30T04:24:11.182Z,48
2016-05-30T04:25:11.216Z,40
2016-05-30T04:26:11.218Z,40
2016-05-30T04:27:11.252Z,40
2016-05-30T04:28:11.286Z,36
2016-05-30T04:29:11.304Z,40
2016-05-30T04:30:11.323Z,40
2016-05-30T04:31:11.373Z,28
2016-05-30T04:32:11.376Z,28
2016-05-30T04:33:11.253Z,32
2016-05-30T04:34:11.271Z,24
2016-05-30T04:35:11.508Z,28
2016-05-30T04:36:11.479Z,28
2016-05-30T04:37:12.468Z,28
2016-05-30T04:38:11.532Z,28
2016-05-30T04:39:11.550Z,28
2016-05-30T04:40:11.428Z,32
2016-05-30T04:41:11.462Z,32
2016-05-30T04:42:11.480Z,32
2016-05-30T04:43:11.656Z,28
2016-05-30T04:44:11.533Z,28
2016-05-30T04:45:11.706Z,32
2016-05-30T04:46:11.726Z,40
2016-05-30T04:47:11.759Z,44
2016-05-30T04:48:11.794Z,44
2016-05-30T04:49:11.812Z,52
2016-05-30T04:50:11.830Z,44
2016-05-30T04:51:11.864Z,44
2016-05-30T04:52:11.742Z,52
2016-05-30T04:53:11.603Z,60
2016-05-30T04:54:11.950Z,76
2016-05-30T04:55:11.656Z,84
2016-05-30T04:56:11.986Z,92
2016-05-30T04:57:12.021Z,108
2016-05-30T04:58:12.039Z,132
2016-05-30T04:59:12.057Z,148
2016-05-30T05:00:12.107Z,156
2016-05-30T05:01:11.954Z,164
2016-05-30T05:02:11.831Z,164
2016-05-30T05:03:12.162Z,164
2016-05-30T05:04:12.196Z,164
2016-05-30T05:05:12.245Z,164
2016-05-30T05:06:12.232Z,172
2016-05-30T05:07:12.657Z,168
2016-05-30T05:08:12.143Z,168
2016-05-30T05:09:12.318Z,168
2016-05-30T05:10:12.337Z,176
2016-05-30T05:11:12.370Z,172
2016-05-30T05:12:12.233Z,168
2016-05-30T05:13:12.423Z,172
2016-05-30T05:14:12.441Z,164
2016-05-30T05:15:12.459Z,152
2016-05-30T05:16:12.509Z,148
2016-05-30T05:17:12.372Z,128
2016-05-30T05:18:12.545Z,100
2016-05-30T05:19:12.580Z,108
2016-05-30T05:20:12.442Z,104
2016-05-30T05:21:12.617Z,104
2016-05-30T05:22:12.620Z,96
2016-05-30T05:23:12.513Z,108
2016-05-30T05:24:12.687Z,100
2016-05-30T05:25:12.752Z,132
2016-05-30T05:26:12.583Z,176
2016-05-30T05:27:12.774Z,180
2016-05-30T05:28:12.808Z,144
2016-05-30T05:29:12.825Z,176
2016-05-30T05:30:12.843Z,156
2016-05-30T05:31:12.863Z,164
2016-05-30T05:32:12.880Z,144
2016-05-30T05:33:12.930Z,148
2016-05-30T05:34:12.948Z,148
2016-05-30T05:35:12.966Z,160
2016-05-30T05:36:13.001Z,156
2016-05-30T05:37:13.300Z,168
2016-05-30T05:38:13.084Z,200
2016-05-30T05:39:13.087Z,176
2016-05-30T05:40:13.104Z,172
2016-05-30T05:41:13.124Z,196
2016-05-30T05:42:12.845Z,184
2016-05-30T05:43:13.192Z,216
2016-05-30T05:44:13.209Z,212
2016-05-30T05:45:13.228Z,248
2016-05-30T05:46:13.261Z,248
2016-05-30T05:47:13.281Z,248
2016-05-30T05:48:13.158Z,272
2016-05-30T05:49:13.333Z,288
2016-05-30T05:50:13.351Z,304
2016-05-30T05:51:13.369Z,320
2016-05-30T05:52:13.402Z,344
2016-05-30T05:53:13.421Z,348
2016-05-30T05:54:13.456Z,368
2016-05-30T05:55:13.177Z,388
2016-05-30T05:56:13.508Z,412
2016-05-30T05:57:13.525Z,436
2016-05-30T05:58:13.544Z,444
2016-05-30T05:59:13.281Z,452
2016-05-30T06:00:13.613Z,456
2016-05-30T06:01:13.474Z,460
2016-05-30T06:02:13.493Z,476
2016-05-30T06:03:13.683Z,456
2016-05-30T06:04:13.701Z,444
2016-05-30T06:05:13.735Z,412
2016-05-30T06:06:13.754Z,416
2016-05-30T06:07:13.881Z,412
2016-05-30T06:08:15.259Z,412
2016-05-30T06:09:13.527Z,396
2016-05-30T06:10:13.701Z,392
2016-05-30T06:11:13.876Z,380
2016-05-30T06:12:13.910Z,452
2016-05-30T06:13:13.928Z,464
2016-05-30T06:14:13.806Z,376
2016-05-30T06:15:13.996Z,408
2016-05-30T06:16:13.842Z,428
2016-05-30T06:17:13.876Z,436
2016-05-30T06:18:13.770Z,424
2016-05-30T06:19:13.772Z,476
2016-05-30T06:20:14.103Z,540
2016-05-30T06:21:14.137Z,496
2016-05-30T06:22:14.327Z,536
2016-05-30T06:23:14.205Z,620
2016-05-30T06:24:14.223Z,648
2016-05-30T06:25:14.241Z,608
2016-05-30T06:26:14.260Z,568
2016-05-30T06:27:14.294Z,672
2016-05-30T06:28:14.155Z,804
2016-05-30T06:29:14.346Z,992
2016-05-30T06:30:14.364Z,924
2016-05-30T06:31:14.382Z,952
2016-05-30T06:32:14.260Z,1096
2016-05-30T06:33:16.529Z,1104
2016-05-30T06:34:14.454Z,1076
2016-05-30T06:35:19.316Z,1020
2016-05-30T06:36:14.521Z,972
2016-05-30T06:37:14.587Z,928
2016-05-30T06:38:15.542Z,792
2016-05-30T06:39:14.420Z,752
2016-05-30T06:40:16.298Z,856
2016-05-30T06:41:14.628Z,880
2016-05-30T06:42:14.507Z,908
2016-05-30T06:43:16.212Z,1024
2016-05-30T06:44:14.559Z,900
2016-05-30T06:45:15.154Z,980
2016-05-30T06:46:14.595Z,924
2016-05-30T06:47:14.801Z,824
2016-05-30T06:48:14.819Z,712
2016-05-30T06:49:14.541Z,596
2016-05-30T06:50:14.872Z,556
2016-05-30T06:51:14.889Z,536
2016-05-30T06:52:14.784Z,420
2016-05-30T06:53:16.583Z,372
2016-05-30T06:54:15.007Z,324
2016-05-30T06:55:14.557Z,252
2016-05-30T06:56:15.028Z,236
2016-05-30T06:57:14.891Z,188
2016-05-30T06:58:15.190Z,176
2016-05-30T06:59:15.083Z,216
2016-05-30T07:00:15.149Z,212
2016-05-30T07:01:15.135Z,268
2016-05-30T07:02:15.013Z,328
2016-05-30T07:03:16.172Z,332
2016-05-30T07:04:15.066Z,372
2016-05-30T07:05:15.100Z,356
2016-05-30T07:06:15.274Z,340
2016-05-30T07:07:15.168Z,376
2016-05-30T07:08:15.185Z,420
2016-05-30T07:09:15.188Z,412
2016-05-30T07:10:15.221Z,380
2016-05-30T07:11:15.241Z,372
2016-05-30T07:12:15.259Z,340
2016-05-30T07:13:15.292Z,372
2016-05-30T07:14:15.468Z,300
2016-05-30T07:15:15.501Z,248
2016-05-30T07:16:15.535Z,204
2016-05-30T07:17:15.570Z,176
2016-05-30T07:18:15.416Z,156
2016-05-30T07:19:15.590Z,176
2016-05-30T07:20:15.609Z,164
2016-05-30T07:21:15.642Z,196
2016-05-30T07:22:16.004Z,180
2016-05-30T07:23:15.711Z,176
2016-05-30T07:24:15.572Z,180
2016-05-30T07:25:19.075Z,236
2016-05-30T07:26:15.781Z,268
2016-05-30T07:27:15.800Z,280
2016-05-30T07:28:15.833Z,340
2016-05-30T07:29:15.711Z,368
2016-05-30T07:30:15.870Z,452
2016-05-30T07:31:15.903Z,412
2016-05-30T07:32:15.938Z,428
2016-05-30T07:33:15.940Z,396
2016-05-30T07:34:15.974Z,400
2016-05-30T07:35:15.993Z,372
2016-05-30T07:36:16.027Z,364
2016-05-30T07:37:16.482Z,436
2016-05-30T07:38:16.094Z,468
2016-05-30T07:39:16.128Z,416
2016-05-30T07:40:18.897Z,480
2016-05-30T07:41:16.180Z,532
2016-05-30T07:42:16.183Z,588
2016-05-30T07:43:16.232Z,656
2016-05-30T07:44:22.127Z,676
2016-05-30T07:45:16.723Z,460
2016-05-30T07:46:16.303Z,352
2016-05-30T07:47:16.321Z,312
2016-05-30T07:48:19.106Z,296
2016-05-30T07:49:16.374Z,304
2016-05-30T07:50:16.829Z,288
2016-05-30T07:51:16.411Z,360
2016-05-30T07:52:16.131Z,436
2016-05-30T07:53:16.306Z,500
2016-05-30T07:54:16.481Z,396
2016-05-30T07:55:19.797Z,268
2016-05-30T07:56:16.846Z,268
2016-05-30T07:57:16.552Z,364
2016-05-30T07:58:16.586Z,372
2016-05-30T07:59:16.463Z,384
2016-05-30T08:00:16.638Z,380
2016-05-30T08:01:16.672Z,376
2016-05-30T08:02:16.691Z,420
2016-05-30T08:03:16.708Z,628
2016-05-30T08:04:16.742Z,596
2016-05-30T08:05:16.605Z,400
2016-05-30T08:06:16.794Z,352
2016-05-30T08:07:16.797Z,344
2016-05-30T08:08:16.691Z,368
2016-05-30T08:09:16.866Z,384
2016-05-30T08:10:16.899Z,528
2016-05-30T08:11:16.918Z,352
2016-05-30T08:12:16.779Z,316
2016-05-30T08:13:17.204Z,284
2016-05-30T08:14:16.988Z,296
2016-05-30T08:15:17.022Z,260
2016-05-30T08:16:17.041Z,272
2016-05-30T08:17:16.762Z,292
2016-05-30T08:18:17.093Z,304
2016-05-30T08:19:17.111Z,312
2016-05-30T08:20:17.145Z,328
2016-05-30T08:21:17.163Z,348
2016-05-30T08:22:16.745Z,364
2016-05-30T08:23:17.482Z,416
2016-05-30T08:24:17.249Z,424
2016-05-30T08:25:17.267Z,364
2016-05-30T08:26:17.301Z,408
2016-05-30T08:27:17.320Z,428
2016-05-30T08:28:17.182Z,400
2016-05-30T08:29:17.372Z,388
2016-05-30T08:30:17.234Z,380
2016-05-30T08:31:17.424Z,412
2016-05-30T08:32:17.442Z,388
2016-05-30T08:33:17.336Z,420
2016-05-30T08:34:17.495Z,448
2016-05-30T08:35:17.357Z,456
2016-05-30T08:36:17.547Z,436
2016-05-30T08:37:18.191Z,456
2016-05-30T08:38:17.615Z,488
2016-05-30T08:39:17.618Z,468
2016-05-30T08:40:17.636Z,476
2016-05-30T08:41:17.702Z,484
2016-05-30T08:42:17.549Z,472
2016-05-30T08:43:17.581Z,468
2016-05-30T08:44:17.585Z,504
2016-05-30T08:45:17.774Z,544
2016-05-30T08:46:17.480Z,604
2016-05-30T08:47:17.811Z,672
2016-05-30T08:48:17.860Z,712
2016-05-30T08:49:17.723Z,824
2016-05-30T08:50:17.898Z,728
2016-05-30T08:51:18.135Z,760
2016-05-30T08:52:18.106Z,748
2016-05-30T08:53:17.967Z,784
2016-05-30T08:54:18.001Z,880
2016-05-30T08:55:18.020Z,820
2016-05-30T08:56:18.039Z,812
2016-05-30T08:57:18.073Z,748
2016-05-30T08:58:18.092Z,732
2016-05-30T08:59:18.125Z,736
2016-05-30T09:00:17.830Z,788
2016-05-30T09:01:18.161Z,820
2016-05-30T09:02:21.070Z,900
2016-05-30T09:03:18.230Z,852
2016-05-30T09:04:18.264Z,760
2016-05-30T09:05:18.266Z,804
2016-05-30T09:06:18.300Z,776
2016-05-30T09:07:18.349Z,816
2016-05-30T09:08:18.353Z,652
2016-05-30T09:09:18.371Z,644
2016-05-30T09:10:18.248Z,664
2016-05-30T09:11:18.297Z,696
2016-05-30T09:12:18.441Z,660
2016-05-30T09:13:18.475Z,712
2016-05-30T09:14:18.368Z,780
2016-05-30T09:15:18.527Z,676
2016-05-30T09:16:18.560Z,616
2016-05-30T09:17:18.595Z,632
2016-05-30T09:18:18.598Z,664
2016-05-30T09:19:18.632Z,680
2016-05-30T09:20:18.494Z,564
2016-05-30T09:21:18.684Z,568
2016-05-30T09:22:18.843Z,648
2016-05-30T09:23:18.736Z,748
2016-05-30T09:24:18.770Z,784
2016-05-30T09:25:18.789Z,820
2016-05-30T09:26:18.651Z,1012
2016-05-30T09:27:18.669Z,924
2016-05-30T09:28:18.889Z,1068
2016-05-30T09:29:18.878Z,976
2016-05-30T09:30:18.911Z,900
2016-05-30T09:31:18.930Z,876
2016-05-30T09:32:18.964Z,728
2016-05-30T09:33:18.982Z,676
2016-05-30T09:34:19.000Z,652
2016-05-30T09:35:19.081Z,764
2016-05-30T09:36:19.458Z,800
2016-05-30T09:37:18.947Z,744
2016-05-30T09:38:19.105Z,752
2016-05-30T09:39:19.138Z,708
2016-05-30T09:40:19.157Z,544
2016-05-30T09:41:19.191Z,444
2016-05-30T09:42:19.209Z,448
2016-05-30T09:43:19.244Z,476
2016-05-30T09:44:19.261Z,440
2016-05-30T09:45:19.295Z,368
2016-05-30T09:46:19.158Z,352
2016-05-30T09:47:19.332Z,296
2016-05-30T09:48:19.381Z,336
2016-05-30T09:49:19.385Z,416
2016-05-30T09:50:19.418Z,464
2016-05-30T09:51:19.515Z,512
2016-05-30T09:52:19.314Z,524
2016-05-30T09:53:19.489Z,616
2016-05-30T09:54:19.506Z,648
2016-05-30T09:55:19.884Z,676
2016-05-30T09:56:19.403Z,548
2016-05-30T09:57:19.437Z,468
2016-05-30T09:58:19.611Z,444
2016-05-30T09:59:19.708Z,392
2016-05-30T10:00:19.664Z,336
2016-05-30T10:01:19.698Z,368
2016-05-30T10:02:19.716Z,312
2016-05-30T10:03:19.594Z,368
2016-05-30T10:04:19.769Z,416
2016-05-30T10:05:19.787Z,436
2016-05-30T10:06:19.727Z,392
2016-05-30T10:07:19.698Z,356
2016-05-30T10:08:19.873Z,400
2016-05-30T10:09:19.923Z,408
2016-05-30T10:10:19.910Z,324
2016-05-30T10:11:19.944Z,252
2016-05-30T10:12:19.994Z,372
2016-05-30T10:13:20.011Z,500
2016-05-30T10:14:20.014Z,276
2016-05-30T10:15:20.049Z,148
2016-05-30T10:16:20.082Z,244
2016-05-30T10:17:20.100Z,284
2016-05-30T10:18:19.962Z,196
2016-05-30T10:19:20.137Z,168
2016-05-30T10:20:20.030Z,384
2016-05-30T10:21:20.267Z,760
2016-05-30T10:22:20.582Z,808
2016-05-30T10:23:20.241Z,804
2016-05-30T10:24:20.291Z,908
2016-05-30T10:25:20.325Z,1016
2016-05-30T10:26:20.328Z,960
2016-05-30T10:27:20.346Z,864
2016-05-30T10:28:20.364Z,804
2016-05-30T10:29:20.257Z,828
2016-05-30T10:30:20.417Z,876
2016-05-30T10:31:20.450Z,872
2016-05-30T10:32:20.328Z,848
2016-05-30T10:33:20.503Z,832
2016-05-30T10:34:20.520Z,812
2016-05-30T10:35:20.555Z,816
2016-05-30T10:36:20.573Z,956
2016-05-30T10:37:20.623Z,1060
2016-05-30T10:38:20.625Z,1052
2016-05-30T10:39:20.659Z,968
2016-05-30T10:40:20.365Z,888
2016-05-30T10:41:20.712Z,932
2016-05-30T10:42:20.746Z,1092
2016-05-30T10:43:20.639Z,1264
2016-05-30T10:44:20.783Z,1528
2016-05-30T10:45:20.504Z,1688
2016-05-30T10:46:20.818Z,1788
2016-05-30T10:47:20.853Z,1888
2016-05-30T10:48:20.887Z,1896
2016-05-30T10:49:20.904Z,1884
2016-05-30T10:50:20.938Z,1844
2016-05-30T10:51:20.911Z,1828
2016-05-30T10:52:21.085Z,1880
2016-05-30T10:53:21.010Z,1900
2016-05-30T10:54:20.888Z,2068
2016-05-30T10:55:21.062Z,2184
2016-05-30T10:56:20.940Z,2172
2016-05-30T10:57:20.958Z,1980
2016-05-30T10:58:21.132Z,1540
2016-05-30T10:59:21.167Z,1332
2016-05-30T11:00:21.044Z,1112
2016-05-30T11:01:21.203Z,1080
2016-05-30T11:02:21.081Z,948
2016-05-30T11:03:21.098Z,744
2016-05-30T11:04:21.273Z,656
2016-05-30T11:05:21.308Z,612
2016-05-30T11:06:21.638Z,656
2016-05-30T11:07:21.672Z,628
2016-05-30T11:08:21.394Z,668
2016-05-30T11:09:21.396Z,640
2016-05-30T11:10:21.289Z,640
2016-05-30T11:11:21.464Z,632
2016-05-30T11:12:21.498Z,644
2016-05-30T11:13:21.500Z,616
2016-05-30T11:14:21.535Z,620
2016-05-30T11:15:21.585Z,640
2016-05-30T11:16:21.587Z,652
2016-05-30T11:17:21.621Z,660
2016-05-30T11:18:21.639Z,684
2016-05-30T11:19:21.361Z,732
2016-05-30T11:20:21.691Z,740
2016-05-30T11:21:21.710Z,776
2016-05-30T11:22:21.697Z,792
2016-05-30T11:23:21.763Z,856
2016-05-30T11:24:21.640Z,952
2016-05-30T11:25:21.674Z,980
2016-05-30T11:26:21.692Z,1012
2016-05-30T11:27:21.882Z,1040
2016-05-30T11:28:22.119Z,1068
2016-05-30T11:29:21.919Z,1072
2016-05-30T11:30:21.953Z,1016
2016-05-30T11:31:21.971Z,1056
2016-05-30T11:32:21.989Z,1128
2016-05-30T11:33:22.039Z,1256
2016-05-30T11:34:21.917Z,1200
2016-05-30T11:35:22.123Z,1268
2016-05-30T11:36:22.109Z,1504
2016-05-30T11:37:22.800Z,1504
2016-05-30T11:38:22.146Z,1728
2016-05-30T11:39:22.196Z,1716
2016-05-30T11:40:22.214Z,1568
2016-05-30T11:41:22.232Z,1572
2016-05-30T11:42:22.250Z,1540
2016-05-30T11:43:22.269Z,1196
2016-05-30T11:44:22.303Z,1160
2016-05-30T11:45:22.351Z,1216
2016-05-30T11:46:22.391Z,1164
2016-05-30T11:47:22.430Z,1324
2016-05-30T11:48:22.468Z,1472
2016-05-30T11:49:22.537Z,1480
2016-05-30T11:50:22.567Z,1624
2016-05-30T11:51:22.592Z,1428
2016-05-30T11:52:22.477Z,1492
2016-05-30T11:53:22.659Z,1544
2016-05-30T11:54:22.560Z,1820
2016-05-30T11:55:22.722Z,2048
2016-05-30T11:56:22.602Z,2192
2016-05-30T11:57:22.796Z,2308
2016-05-30T11:58:22.816Z,2352
2016-05-30T11:59:22.682Z,2136
2016-05-30T12:00:22.717Z,2052
2016-05-30T12:01:22.893Z,2584
2016-05-30T12:02:22.912Z,2872
2016-05-30T12:03:22.948Z,3420
2016-05-30T12:04:22.966Z,3264
2016-05-30T12:05:22.986Z,3320
2016-05-30T12:06:23.020Z,3264
2016-05-30T12:07:22.773Z,2924
2016-05-30T12:08:23.073Z,3308
2016-05-30T12:09:23.107Z,3220
2016-05-30T12:10:23.126Z,3084
2016-05-30T12:11:23.145Z,2876
2016-05-30T12:12:23.022Z,2780
2016-05-30T12:13:23.196Z,2588
2016-05-30T12:14:23.245Z,2644
2016-05-30T12:15:23.248Z,2548
2016-05-30T12:16:23.283Z,2300
2016-05-30T12:17:23.145Z,2124
2016-05-30T12:18:23.320Z,2140
2016-05-30T12:19:23.353Z,1956
2016-05-30T12:20:23.215Z,1828
2016-05-30T12:21:23.250Z,1760
2016-05-30T12:22:23.439Z,1948
2016-05-30T12:23:23.473Z,1840
2016-05-30T12:24:23.476Z,1936
2016-05-30T12:25:23.494Z,2104
2016-05-30T12:26:23.388Z,1996
2016-05-30T12:27:23.547Z,2144
2016-05-30T12:28:23.580Z,2036
2016-05-30T12:29:23.599Z,2008
2016-05-30T12:30:23.492Z,2132
2016-05-30T12:31:23.667Z,2060
2016-05-30T12:32:23.529Z,2016
2016-05-30T12:33:23.719Z,1896
2016-05-30T12:34:23.737Z,1596
2016-05-30T12:35:23.771Z,1376
2016-05-30T12:36:23.805Z,992
2016-05-30T12:37:23.668Z,996
2016-05-30T12:38:23.842Z,1168
2016-05-30T12:39:23.938Z,1076
2016-05-30T12:40:23.894Z,1328
2016-05-30T12:41:23.928Z,1568
2016-05-30T12:42:23.946Z,1928
2016-05-30T12:43:23.824Z,1732
2016-05-30T12:44:23.999Z,1660
2016-05-30T12:45:24.032Z,1708
2016-05-30T12:46:24.067Z,1420
2016-05-30T12:47:24.084Z,1348
2016-05-30T12:48:24.104Z,1432
2016-05-30T12:49:23.981Z,1588
2016-05-30T12:50:24.156Z,1512
2016-05-30T12:51:24.173Z,1772
2016-05-30T12:52:24.208Z,1596
2016-05-30T12:53:24.242Z,1920
2016-05-30T12:54:24.260Z,2620
2016-05-30T12:55:24.294Z,2280
2016-05-30T12:56:24.312Z,2092
2016-05-30T12:57:24.347Z,1716
2016-05-30T12:58:24.208Z,1236
2016-05-30T12:59:24.242Z,1272
2016-05-30T13:00:24.260Z,1496
2016-05-30T13:01:24.435Z,1600
2016-05-30T13:02:24.328Z,1652
2016-05-30T13:03:24.502Z,1576
2016-05-30T13:04:24.521Z,1604
2016-05-30T13:05:24.555Z,1408
2016-05-30T13:06:24.933Z,1444
2016-05-30T13:07:24.452Z,1816
2016-05-30T13:08:24.641Z,1912
2016-05-30T13:09:24.660Z,2176
2016-05-30T13:10:24.679Z,1628
2016-05-30T13:11:24.696Z,1504
2016-05-30T13:12:24.559Z,1364
2016-05-30T13:13:24.764Z,1452
2016-05-30T13:14:24.626Z,1388
2016-05-30T13:15:24.801Z,1264
2016-05-30T13:16:24.834Z,1228
2016-05-30T13:17:24.853Z,1332
2016-05-30T13:18:24.903Z,1460
2016-05-30T13:19:24.608Z,1992
2016-05-30T13:20:24.955Z,2108
2016-05-30T13:21:24.817Z,2132
2016-05-30T13:22:25.148Z,1860
2016-05-30T13:23:24.869Z,1528
2016-05-30T13:24:25.044Z,1616
2016-05-30T13:25:25.062Z,1440
2016-05-30T13:26:24.939Z,1200
2016-05-30T13:27:25.130Z,1212
2016-05-30T13:28:25.148Z,1200
2016-05-30T13:29:25.182Z,1156
2016-05-30T13:30:25.200Z,1244
2016-05-30T13:31:25.235Z,1404
2016-05-30T13:32:25.096Z,1484
2016-05-30T13:33:25.272Z,1408
2016-05-30T13:34:25.305Z,1344
2016-05-30T13:35:25.323Z,1188
2016-05-30T13:36:25.358Z,1092
2016-05-30T13:37:25.391Z,1156
2016-05-30T13:38:25.410Z,1276
2016-05-30T13:39:25.288Z,1340
2016-05-30T13:40:25.462Z,1420
2016-05-30T13:41:25.340Z,1372
2016-05-30T13:42:25.374Z,1800
2016-05-30T13:43:25.532Z,1788
2016-05-30T13:44:25.410Z,1424
2016-05-30T13:45:25.601Z,1264
2016-05-30T13:46:25.618Z,1180
2016-05-30T13:47:25.481Z,1212
2016-05-30T13:48:25.670Z,1292
2016-05-30T13:49:25.534Z,1288
2016-05-30T13:50:25.567Z,1192
2016-05-30T13:51:25.742Z,1084
2016-05-30T13:52:25.853Z,944
2016-05-30T13:53:25.809Z,832
2016-05-30T13:54:25.828Z,884
2016-05-30T13:55:25.878Z,744
2016-05-30T13:56:25.989Z,768
2016-05-30T13:57:25.898Z,852
2016-05-30T13:58:25.792Z,892